sensor_id;sensor_type;location;lat;lon;timestamp;pressure;altitude;pressure_sealevel;temperature;humidity
39341;BME280;25059;52.132;21.062;2023-05-23T00:02:28;100363.16;;;21.75;44.78
39341;BME280;25059;52.132;21.062;2023-05-23T00:05:14;100365.25;;;21.71;45.43
39341;BME280;25059;52.132;21.062;2023-05-23T00:08:02;100357.41;;;21.58;45.73
39341;BME280;25059;52.132;21.062;2023-05-23T00:10:47;100360.94;;;21.59;45.57
39341;BME280;25059;52.132;21.062;2023-05-23T00:13:31;100364.00;;;21.54;45.82
39341;BME280;25059;52.132;21.062;2023-05-23T00:16:18;100354.03;;;21.56;45.75
39341;BME280;25059;52.132;21.062;2023-05-23T00:19:04;100363.63;;;21.59;46.17
39341;BME280;25059;52.132;21.062;2023-05-23T00:21:49;100364.75;;;21.24;46.61
39341;BME280;25059;52.132;21.062;2023-05-23T00:24:34;100351.03;;;21.07;46.91
39341;BME280;25059;52.132;21.062;2023-05-23T00:27:19;100357.06;;;21.31;46.92
39341;BME280;25059;52.132;21.062;2023-05-23T00:30:04;100348.19;;;21.19;47.48
39341;BME280;25059;52.132;21.062;2023-05-23T00:32:49;100354.13;;;21.34;46.79
39341;BME280;25059;52.132;21.062;2023-05-23T00:35:33;100359.03;;;21.18;47.67
39341;BME280;25059;52.132;21.062;2023-05-23T00:38:18;100346.78;;;21.04;47.61
39341;BME280;25059;52.132;21.062;2023-05-23T00:41:03;100348.59;;;21.15;47.47
39341;BME280;25059;52.132;21.062;2023-05-23T00:43:48;100348.31;;;20.86;48.31
39341;BME280;25059;52.132;21.062;2023-05-23T00:46:33;100348.81;;;20.80;48.52
39341;BME280;25059;52.132;21.062;2023-05-23T00:49:17;100347.69;;;20.93;48.20
39341;BME280;25059;52.132;21.062;2023-05-23T00:52:05;100347.00;;;20.69;48.73
39341;BME280;25059;52.132;21.062;2023-05-23T00:54:50;100348.53;;;20.94;48.60
39341;BME280;25059;52.132;21.062;2023-05-23T00:57:36;100338.22;;;20.89;48.80
39341;BME280;25059;52.132;21.062;2023-05-23T01:00:25;100346.75;;;20.72;49.10
39341;BME280;25059;52.132;21.062;2023-05-23T01:03:10;100341.94;;;20.55;49.67
39341;BME280;25059;52.132;21.062;2023-05-23T01:06:00;100345.66;;;20.75;48.94
39341;BME280;25059;52.132;21.062;2023-05-23T01:08:46;100351.63;;;20.67;49.56
39341;BME280;25059;52.132;21.062;2023-05-23T01:11:44;100350.75;;;20.78;49.28
39341;BME280;25059;52.132;21.062;2023-05-23T01:14:45;100352.81;;;20.74;49.16
39341;BME280;25059;52.132;21.062;2023-05-23T01:29:40;100348.69;;;20.81;49.43
39341;BME280;25059;52.132;21.062;2023-05-23T01:32:27;100355.34;;;20.87;49.32
39341;BME280;25059;52.132;21.062;2023-05-23T01:35:13;100350.88;;;20.76;49.49
39341;BME280;25059;52.132;21.062;2023-05-23T01:38:03;100345.00;;;20.93;49.09
39341;BME280;25059;52.132;21.062;2023-05-23T01:40:47;100350.75;;;20.78;49.49
39341;BME280;25059;52.132;21.062;2023-05-23T01:43:32;100336.91;;;20.84;49.12
39341;BME280;25059;52.132;21.062;2023-05-23T01:46:16;100336.66;;;20.76;49.33
39341;BME280;25059;52.132;21.062;2023-05-23T01:49:03;100346.13;;;20.80;49.56
39341;BME280;25059;52.132;21.062;2023-05-23T01:51:47;100342.66;;;20.35;50.19
39341;BME280;25059;52.132;21.062;2023-05-23T01:54:33;100326.53;;;20.47;50.17
39341;BME280;25059;52.132;21.062;2023-05-23T01:57:18;100322.94;;;20.80;49.60
39341;BME280;25059;52.132;21.062;2023-05-23T02:00:05;100327.44;;;20.80;49.54
39341;BME280;25059;52.132;21.062;2023-05-23T02:02:50;100328.97;;;20.39;49.94
39341;BME280;25059;52.132;21.062;2023-05-23T02:05:34;100328.81;;;20.52;49.59
39341;BME280;25059;52.132;21.062;2023-05-23T02:08:18;100318.88;;;20.43;49.52
39341;BME280;25059;52.132;21.062;2023-05-23T02:11:03;100323.69;;;20.71;49.21
39341;BME280;25059;52.132;21.062;2023-05-23T02:13:48;100317.88;;;20.55;49.64
39341;BME280;25059;52.132;21.062;2023-05-23T02:16:32;100321.03;;;20.38;50.04
39341;BME280;25059;52.132;21.062;2023-05-23T02:19:19;100323.47;;;20.52;49.68
39341;BME280;25059;52.132;21.062;2023-05-23T02:22:04;100326.25;;;20.28;50.38
39341;BME280;25059;52.132;21.062;2023-05-23T02:24:48;100315.94;;;20.23;50.15
39341;BME280;25059;52.132;21.062;2023-05-23T02:27:33;100317.78;;;20.23;50.49
39341;BME280;25059;52.132;21.062;2023-05-23T02:30:17;100315.34;;;20.31;50.53
39341;BME280;25059;52.132;21.062;2023-05-23T02:33:05;100313.41;;;20.55;49.68
39341;BME280;25059;52.132;21.062;2023-05-23T02:35:49;100309.88;;;20.32;50.37
39341;BME280;25059;52.132;21.062;2023-05-23T02:38:34;100295.78;;;20.30;50.02
39341;BME280;25059;52.132;21.062;2023-05-23T02:41:19;100294.09;;;20.18;50.46
39341;BME280;25059;52.132;21.062;2023-05-23T02:44:04;100309.03;;;20.21;50.71
39341;BME280;25059;52.132;21.062;2023-05-23T02:46:49;100305.63;;;20.30;50.49
39341;BME280;25059;52.132;21.062;2023-05-23T02:49:33;100301.88;;;20.44;50.42
39341;BME280;25059;52.132;21.062;2023-05-23T02:52:18;100289.84;;;20.38;50.16
39341;BME280;25059;52.132;21.062;2023-05-23T02:55:03;100307.94;;;20.46;50.09
39341;BME280;25059;52.132;21.062;2023-05-23T02:57:47;100300.53;;;20.38;50.31
39341;BME280;25059;52.132;21.062;2023-05-23T03:00:32;100303.44;;;20.35;50.47
39341;BME280;25059;52.132;21.062;2023-05-23T03:03:16;100297.50;;;20.54;50.16
39341;BME280;25059;52.132;21.062;2023-05-23T03:06:02;100296.38;;;20.68;49.87
39341;BME280;25059;52.132;21.062;2023-05-23T03:08:48;100289.38;;;20.33;50.28
39341;BME280;25059;52.132;21.062;2023-05-23T03:11:32;100299.56;;;20.50;49.94
39341;BME280;25059;52.132;21.062;2023-05-23T03:14:17;100293.78;;;20.77;49.53
39341;BME280;25059;52.132;21.062;2023-05-23T03:17:01;100294.72;;;20.87;49.18
39341;BME280;25059;52.132;21.062;2023-05-23T03:19:46;100297.63;;;20.95;48.91
39341;BME280;25059;52.132;21.062;2023-05-23T03:22:31;100298.97;;;20.90;48.62
39341;BME280;25059;52.132;21.062;2023-05-23T03:25:15;100301.31;;;21.15;47.85
39341;BME280;25059;52.132;21.062;2023-05-23T03:28:00;100297.03;;;21.24;47.63
39341;BME280;25059;52.132;21.062;2023-05-23T03:30:45;100291.97;;;21.42;47.40
39341;BME280;25059;52.132;21.062;2023-05-23T03:33:30;100292.53;;;21.45;47.01
39341;BME280;25059;52.132;21.062;2023-05-23T03:36:14;100298.03;;;21.44;47.18
39341;BME280;25059;52.132;21.062;2023-05-23T03:38:59;100301.41;;;21.46;47.39
39341;BME280;25059;52.132;21.062;2023-05-23T03:41:43;100305.38;;;21.72;46.59
39341;BME280;25059;52.132;21.062;2023-05-23T03:44:28;100288.81;;;21.57;46.47
39341;BME280;25059;52.132;21.062;2023-05-23T03:47:12;100298.31;;;21.92;45.73
39341;BME280;25059;52.132;21.062;2023-05-23T03:49:57;100292.50;;;21.87;45.15
39341;BME280;25059;52.132;21.062;2023-05-23T03:52:42;100294.59;;;22.04;45.39
39341;BME280;25059;52.132;21.062;2023-05-23T03:55:27;100299.72;;;22.17;44.76
39341;BME280;25059;52.132;21.062;2023-05-23T03:58:11;100297.81;;;22.38;44.36
39341;BME280;25059;52.132;21.062;2023-05-23T04:00:56;100295.00;;;22.40;44.19
39341;BME280;25059;52.132;21.062;2023-05-23T04:03:40;100286.25;;;22.38;44.34
39341;BME280;25059;52.132;21.062;2023-05-23T04:06:25;100284.59;;;22.56;44.08
39341;BME280;25059;52.132;21.062;2023-05-23T04:09:10;100289.81;;;22.58;43.41
39341;BME280;25059;52.132;21.062;2023-05-23T04:11:55;100270.09;;;22.68;43.40
39341;BME280;25059;52.132;21.062;2023-05-23T04:14:39;100278.03;;;22.79;43.09
39341;BME280;25059;52.132;21.062;2023-05-23T04:17:24;100271.84;;;22.88;42.60
39341;BME280;25059;52.132;21.062;2023-05-23T04:20:09;100269.72;;;23.02;42.49
39341;BME280;25059;52.132;21.062;2023-05-23T04:22:54;100258.84;;;23.13;42.05
39341;BME280;25059;52.132;21.062;2023-05-23T04:25:38;100280.69;;;23.37;41.89
39341;BME280;25059;52.132;21.062;2023-05-23T04:28:25;100280.53;;;23.48;41.60
39341;BME280;25059;52.132;21.062;2023-05-23T04:31:11;100271.50;;;23.49;41.45
39341;BME280;25059;52.132;21.062;2023-05-23T04:33:56;100270.66;;;23.59;41.17
39341;BME280;25059;52.132;21.062;2023-05-23T04:36:40;100276.88;;;23.59;41.17
39341;BME280;25059;52.132;21.062;2023-05-23T04:39:28;100279.50;;;23.78;40.81
39341;BME280;25059;52.132;21.062;2023-05-23T04:42:13;100276.50;;;23.91;40.55
39341;BME280;25059;52.132;21.062;2023-05-23T04:44:57;100272.28;;;24.16;40.16
39341;BME280;25059;52.132;21.062;2023-05-23T04:47:42;100268.56;;;23.99;40.27
39341;BME280;25059;52.132;21.062;2023-05-23T04:50:28;100271.84;;;24.30;39.90
39341;BME280;25059;52.132;21.062;2023-05-23T04:53:16;100278.81;;;24.13;39.82
39341;BME280;25059;52.132;21.062;2023-05-23T04:56:00;100274.00;;;24.17;39.76
39341;BME280;25059;52.132;21.062;2023-05-23T04:58:46;100270.41;;;24.54;39.29
39341;BME280;25059;52.132;21.062;2023-05-23T05:01:31;100268.28;;;24.75;38.81
39341;BME280;25059;52.132;21.062;2023-05-23T05:04:15;100267.13;;;24.95;38.69
39341;BME280;25059;52.132;21.062;2023-05-23T05:07:00;100261.53;;;24.71;38.83
39341;BME280;25059;52.132;21.062;2023-05-23T05:09:47;100259.75;;;24.79;38.80
39341;BME280;25059;52.132;21.062;2023-05-23T05:12:31;100262.00;;;24.84;38.66
39341;BME280;25059;52.132;21.062;2023-05-23T05:15:17;100253.91;;;24.84;38.87
39341;BME280;25059;52.132;21.062;2023-05-23T05:18:02;100253.06;;;24.84;39.17
39341;BME280;25059;52.132;21.062;2023-05-23T05:20:46;100254.78;;;25.20;38.70
39341;BME280;25059;52.132;21.062;2023-05-23T05:23:31;100256.69;;;24.92;38.75
39341;BME280;25059;52.132;21.062;2023-05-23T05:26:16;100259.16;;;25.21;38.46
39341;BME280;25059;52.132;21.062;2023-05-23T05:29:01;100236.63;;;25.48;37.76
39341;BME280;25059;52.132;21.062;2023-05-23T05:31:45;100245.22;;;25.26;38.51
39341;BME280;25059;52.132;21.062;2023-05-23T05:34:30;100249.78;;;25.51;38.32
39341;BME280;25059;52.132;21.062;2023-05-23T05:37:15;100248.31;;;25.83;37.77
39341;BME280;25059;52.132;21.062;2023-05-23T05:39:59;100253.94;;;25.97;37.59
39341;BME280;25059;52.132;21.062;2023-05-23T05:42:49;100241.28;;;25.90;37.69
39341;BME280;25059;52.132;21.062;2023-05-23T05:45:35;100246.38;;;26.01;37.35
39341;BME280;25059;52.132;21.062;2023-05-23T05:48:20;100246.31;;;25.85;37.80
39341;BME280;25059;52.132;21.062;2023-05-23T05:51:04;100258.06;;;26.52;37.10
39341;BME280;25059;52.132;21.062;2023-05-23T05:53:49;100258.78;;;26.70;36.71
39341;BME280;25059;52.132;21.062;2023-05-23T05:56:33;100252.88;;;26.66;36.29
39341;BME280;25059;52.132;21.062;2023-05-23T05:59:18;100242.25;;;26.81;35.96
39341;BME280;25059;52.132;21.062;2023-05-23T06:02:03;100229.00;;;27.04;35.76
39341;BME280;25059;52.132;21.062;2023-05-23T06:04:50;100238.09;;;27.11;35.68
39341;BME280;25059;52.132;21.062;2023-05-23T06:07:35;100242.44;;;27.45;35.20
39341;BME280;25059;52.132;21.062;2023-05-23T06:10:29;100243.81;;;27.65;34.93
39341;BME280;25059;52.132;21.062;2023-05-23T06:13:18;100241.59;;;27.52;35.03
39341;BME280;25059;52.132;21.062;2023-05-23T06:16:13;100237.69;;;27.71;35.01
39341;BME280;25059;52.132;21.062;2023-05-23T06:19:09;100242.25;;;27.71;35.19
39341;BME280;25059;52.132;21.062;2023-05-23T06:21:55;100232.81;;;27.66;34.71
39341;BME280;25059;52.132;21.062;2023-05-23T06:24:41;100235.19;;;27.70;34.86
39341;BME280;25059;52.132;21.062;2023-05-23T06:27:26;100227.06;;;28.17;34.39
39341;BME280;25059;52.132;21.062;2023-05-23T06:30:14;100228.88;;;28.33;34.20
39341;BME280;25059;52.132;21.062;2023-05-23T06:33:09;100230.75;;;28.55;34.25
39341;BME280;25059;52.132;21.062;2023-05-23T06:39:35;100213.28;;;28.66;33.79
39341;BME280;25059;52.132;21.062;2023-05-23T06:42:23;100225.84;;;28.58;33.89
39341;BME280;25059;52.132;21.062;2023-05-23T06:48:49;100209.84;;;28.49;33.55
39341;BME280;25059;52.132;21.062;2023-05-23T06:51:34;100203.63;;;28.94;33.01
39341;BME280;25059;52.132;21.062;2023-05-23T06:54:19;100202.03;;;29.00;32.70
39341;BME280;25059;52.132;21.062;2023-05-23T06:57:04;100204.59;;;29.16;32.71
39341;BME280;25059;52.132;21.062;2023-05-23T06:59:49;100191.41;;;28.98;32.68
39341;BME280;25059;52.132;21.062;2023-05-23T07:02:40;100206.28;;;29.17;33.02
39341;BME280;25059;52.132;21.062;2023-05-23T07:05:26;100198.81;;;29.56;31.80
39341;BME280;25059;52.132;21.062;2023-05-23T07:08:11;100208.53;;;29.51;31.66
39341;BME280;25059;52.132;21.062;2023-05-23T07:11:00;100196.28;;;29.55;31.45
39341;BME280;25059;52.132;21.062;2023-05-23T07:13:44;100186.22;;;29.26;31.34
39341;BME280;25059;52.132;21.062;2023-05-23T07:16:30;100194.88;;;29.59;30.73
39341;BME280;25059;52.132;21.062;2023-05-23T07:19:14;100183.84;;;29.61;30.26
39341;BME280;25059;52.132;21.062;2023-05-23T07:21:59;100189.84;;;29.56;30.10
39341;BME280;25059;52.132;21.062;2023-05-23T07:24:44;100195.63;;;29.68;29.79
39341;BME280;25059;52.132;21.062;2023-05-23T07:27:29;100183.66;;;29.47;29.75
39341;BME280;25059;52.132;21.062;2023-05-23T07:30:14;100179.28;;;29.46;29.53
39341;BME280;25059;52.132;21.062;2023-05-23T07:33:09;100180.94;;;29.92;29.40
39341;BME280;25059;52.132;21.062;2023-05-23T07:35:54;100176.09;;;29.87;29.19
39341;BME280;25059;52.132;21.062;2023-05-23T07:38:39;100187.88;;;29.50;28.96
39341;BME280;25059;52.132;21.062;2023-05-23T07:41:23;100179.16;;;29.84;29.10
39341;BME280;25059;52.132;21.062;2023-05-23T07:44:08;100178.72;;;29.66;29.74
39341;BME280;25059;52.132;21.062;2023-05-23T07:46:53;100180.69;;;30.01;29.25
39341;BME280;25059;52.132;21.062;2023-05-23T07:49:41;100171.84;;;29.99;30.14
39341;BME280;25059;52.132;21.062;2023-05-23T07:52:25;100158.25;;;30.29;28.42
39341;BME280;25059;52.132;21.062;2023-05-23T07:55:10;100155.88;;;30.40;28.87
39341;BME280;25059;52.132;21.062;2023-05-23T07:57:55;100167.47;;;30.13;28.66
39341;BME280;25059;52.132;21.062;2023-05-23T08:00:41;100162.22;;;30.11;28.58
39341;BME280;25059;52.132;21.062;2023-05-23T08:03:27;100153.06;;;29.98;28.44
39341;BME280;25059;52.132;21.062;2023-05-23T08:06:12;100155.88;;;30.40;27.74
39341;BME280;25059;52.132;21.062;2023-05-23T08:08:57;100157.16;;;30.23;27.86
39341;BME280;25059;52.132;21.062;2023-05-23T08:11:41;100158.63;;;30.62;27.51
39341;BME280;25059;52.132;21.062;2023-05-23T08:14:26;100160.19;;;29.84;27.72
39341;BME280;25059;52.132;21.062;2023-05-23T08:17:11;100148.06;;;30.31;27.33
39341;BME280;25059;52.132;21.062;2023-05-23T08:19:56;100157.91;;;30.17;27.01
39341;BME280;25059;52.132;21.062;2023-05-23T08:22:40;100144.84;;;30.63;26.29
39341;BME280;25059;52.132;21.062;2023-05-23T08:25:28;100154.56;;;30.15;26.73
39341;BME280;25059;52.132;21.062;2023-05-23T08:28:14;100148.28;;;30.14;26.43
39341;BME280;25059;52.132;21.062;2023-05-23T08:30:58;100145.75;;;30.70;25.66
39341;BME280;25059;52.132;21.062;2023-05-23T08:33:44;100138.91;;;30.74;25.42
39341;BME280;25059;52.132;21.062;2023-05-23T08:36:28;100130.16;;;30.79;26.69
39341;BME280;25059;52.132;21.062;2023-05-23T08:39:15;100143.72;;;30.58;25.98
39341;BME280;25059;52.132;21.062;2023-05-23T08:42:03;100133.84;;;31.21;26.53
39341;BME280;25059;52.132;21.062;2023-05-23T08:44:48;100131.31;;;30.91;25.11
39341;BME280;25059;52.132;21.062;2023-05-23T08:47:35;100127.16;;;29.95;25.59
39341;BME280;25059;52.132;21.062;2023-05-23T08:50:22;100109.44;;;31.27;25.54
39341;BME280;25059;52.132;21.062;2023-05-23T08:53:09;100114.63;;;30.94;25.63
39341;BME280;25059;52.132;21.062;2023-05-23T08:56:03;100116.53;;;30.30;24.67
39341;BME280;25059;52.132;21.062;2023-05-23T08:58:47;100118.03;;;31.03;24.47
39341;BME280;25059;52.132;21.062;2023-05-23T09:01:33;100127.06;;;31.10;24.03
39341;BME280;25059;52.132;21.062;2023-05-23T09:04:19;100125.66;;;30.65;24.67
39341;BME280;25059;52.132;21.062;2023-05-23T09:07:04;100124.28;;;31.25;24.72
39341;BME280;25059;52.132;21.062;2023-05-23T09:09:58;100113.78;;;31.56;24.19
39341;BME280;25059;52.132;21.062;2023-05-23T09:12:43;100110.75;;;32.33;23.65
39341;BME280;25059;52.132;21.062;2023-05-23T09:15:27;100113.34;;;31.94;23.31
39341;BME280;25059;52.132;21.062;2023-05-23T09:18:12;100123.50;;;30.17;24.13
39341;BME280;25059;52.132;21.062;2023-05-23T09:20:57;100114.13;;;31.40;23.79
39341;BME280;25059;52.132;21.062;2023-05-23T09:23:42;100112.91;;;31.49;23.12
39341;BME280;25059;52.132;21.062;2023-05-23T09:26:27;100111.47;;;32.01;22.75
39341;BME280;25059;52.132;21.062;2023-05-23T09:29:12;100116.50;;;32.04;22.60
39341;BME280;25059;52.132;21.062;2023-05-23T09:32:04;100110.34;;;31.75;23.21
39341;BME280;25059;52.132;21.062;2023-05-23T09:34:56;100103.81;;;32.24;23.05
39341;BME280;25059;52.132;21.062;2023-05-23T09:37:44;100104.72;;;32.91;22.71
39341;BME280;25059;52.132;21.062;2023-05-23T09:40:30;100094.63;;;32.38;22.97
39341;BME280;25059;52.132;21.062;2023-05-23T09:43:16;100112.47;;;32.67;22.71
39341;BME280;25059;52.132;21.062;2023-05-23T09:46:10;100102.19;;;32.63;21.56
39341;BME280;25059;52.132;21.062;2023-05-23T09:48:55;100104.72;;;32.71;22.67
39341;BME280;25059;52.132;21.062;2023-05-23T09:51:39;100099.69;;;32.74;22.29
39341;BME280;25059;52.132;21.062;2023-05-23T09:54:24;100095.97;;;31.95;21.77
39341;BME280;25059;52.132;21.062;2023-05-23T09:57:10;100097.16;;;33.32;21.70
39341;BME280;25059;52.132;21.062;2023-05-23T09:59:57;100083.75;;;33.82;21.63
39341;BME280;25059;52.132;21.062;2023-05-23T10:08:26;100096.34;;;34.53;20.97
39341;BME280;25059;52.132;21.062;2023-05-23T10:14:08;100098.50;;;35.19;20.10
39341;BME280;25059;52.132;21.062;2023-05-23T10:17:11;100104.63;;;35.39;20.24
39341;BME280;25059;52.132;21.062;2023-05-23T10:20:01;100092.63;;;36.37;19.96
39341;BME280;25059;52.132;21.062;2023-05-23T10:22:47;100106.63;;;37.64;19.34
39341;BME280;25059;52.132;21.062;2023-05-23T10:25:33;100096.41;;;38.95;18.04
39341;BME280;25059;52.132;21.062;2023-05-23T10:28:20;100090.63;;;38.74;17.57
39341;BME280;25059;52.132;21.062;2023-05-23T10:31:05;100097.47;;;39.27;16.80
39341;BME280;25059;52.132;21.062;2023-05-23T10:33:57;100093.72;;;40.85;15.42
39341;BME280;25059;52.132;21.062;2023-05-23T10:37:00;100101.41;;;41.72;15.72
39341;BME280;25059;52.132;21.062;2023-05-23T10:39:51;100099.53;;;41.30;15.57
39341;BME280;25059;52.132;21.062;2023-05-23T10:45:43;100101.19;;;44.11;14.10
39341;BME280;25059;52.132;21.062;2023-05-23T10:48:33;100086.03;;;45.00;13.38
39341;BME280;25059;52.132;21.062;2023-05-23T10:51:20;100091.81;;;44.41;14.06
39341;BME280;25059;52.132;21.062;2023-05-23T10:54:10;100096.19;;;44.52;14.21
39341;BME280;25059;52.132;21.062;2023-05-23T10:57:02;100101.47;;;46.40;12.85
39341;BME280;25059;52.132;21.062;2023-05-23T10:59:49;100089.38;;;45.26;12.38
39341;BME280;25059;52.132;21.062;2023-05-23T11:02:35;100096.75;;;47.33;12.22
39341;BME280;25059;52.132;21.062;2023-05-23T11:05:21;100085.91;;;48.08;11.37
39341;BME280;25059;52.132;21.062;2023-05-23T11:08:06;100083.59;;;48.24;11.43
39341;BME280;25059;52.132;21.062;2023-05-23T11:10:58;100075.22;;;49.39;10.97
39341;BME280;25059;52.132;21.062;2023-05-23T11:13:58;100077.91;;;49.13;10.61
39341;BME280;25059;52.132;21.062;2023-05-23T11:16:44;100066.97;;;48.41;10.88
39341;BME280;25059;52.132;21.062;2023-05-23T11:19:31;100075.84;;;48.21;11.10
39341;BME280;25059;52.132;21.062;2023-05-23T11:22:16;100066.91;;;46.59;11.34
39341;BME280;25059;52.132;21.062;2023-05-23T11:28:54;100054.91;;;44.06;12.84
39341;BME280;25059;52.132;21.062;2023-05-23T11:31:39;100060.56;;;43.32;13.69
39341;BME280;25059;52.132;21.062;2023-05-23T11:34:25;100060.47;;;43.52;13.02
39341;BME280;25059;52.132;21.062;2023-05-23T11:37:10;100040.84;;;44.66;13.19
39341;BME280;25059;52.132;21.062;2023-05-23T11:39:55;100050.09;;;46.32;12.33
39341;BME280;25059;52.132;21.062;2023-05-23T11:42:41;100049.88;;;47.62;11.61
39341;BME280;25059;52.132;21.062;2023-05-23T11:45:27;100044.13;;;47.45;11.27
39341;BME280;25059;52.132;21.062;2023-05-23T11:48:15;100046.34;;;47.70;10.69
39341;BME280;25059;52.132;21.062;2023-05-23T11:51:00;100048.66;;;47.27;11.08
39341;BME280;25059;52.132;21.062;2023-05-23T11:53:46;100048.84;;;47.31;11.61
39341;BME280;25059;52.132;21.062;2023-05-23T11:56:31;100045.06;;;48.12;10.61
39341;BME280;25059;52.132;21.062;2023-05-23T11:59:15;100034.25;;;47.75;10.84
39341;BME280;25059;52.132;21.062;2023-05-23T12:02:01;100034.72;;;47.00;10.94
39341;BME280;25059;52.132;21.062;2023-05-23T12:04:47;100039.88;;;47.20;11.48
39341;BME280;25059;52.132;21.062;2023-05-23T12:07:32;100043.00;;;48.94;10.64
39341;BME280;25059;52.132;21.062;2023-05-23T12:10:17;100042.75;;;49.95;9.81
39341;BME280;25059;52.132;21.062;2023-05-23T12:13:05;100031.31;;;48.38;10.66
39341;BME280;25059;52.132;21.062;2023-05-23T12:15:53;100032.41;;;48.29;11.21
39341;BME280;25059;52.132;21.062;2023-05-23T12:18:41;100033.72;;;47.86;10.96
39341;BME280;25059;52.132;21.062;2023-05-23T12:21:26;100025.63;;;49.05;10.65
39341;BME280;25059;52.132;21.062;2023-05-23T12:24:17;100019.53;;;50.12;10.20
39341;BME280;25059;52.132;21.062;2023-05-23T12:27:02;100016.75;;;49.86;10.09
39341;BME280;25059;52.132;21.062;2023-05-23T12:29:49;100023.84;;;47.67;10.32
39341;BME280;25059;52.132;21.062;2023-05-23T12:32:40;100023.28;;;46.55;11.76
39341;BME280;25059;52.132;21.062;2023-05-23T12:35:25;100023.22;;;44.81;12.00
39341;BME280;25059;52.132;21.062;2023-05-23T12:38:16;100008.03;;;44.73;12.14
39341;BME280;25059;52.132;21.062;2023-05-23T12:41:09;100018.59;;;45.66;11.98
39341;BME280;25059;52.132;21.062;2023-05-23T12:43:55;100011.09;;;46.37;12.29
39341;BME280;25059;52.132;21.062;2023-05-23T12:46:40;100014.50;;;44.92;12.27
39341;BME280;25059;52.132;21.062;2023-05-23T12:49:24;100008.00;;;44.49;12.57
39341;BME280;25059;52.132;21.062;2023-05-23T12:52:09;100008.09;;;47.35;11.53
39341;BME280;25059;52.132;21.062;2023-05-23T12:54:54;100010.63;;;49.49;10.59
39341;BME280;25059;52.132;21.062;2023-05-23T12:57:39;100002.91;;;49.72;9.77
39341;BME280;25059;52.132;21.062;2023-05-23T13:00:24;100001.78;;;47.56;10.98
39341;BME280;25059;52.132;21.062;2023-05-23T13:03:08;100011.06;;;45.86;11.41
39341;BME280;25059;52.132;21.062;2023-05-23T13:05:53;99994.13;;;45.45;11.73
39341;BME280;25059;52.132;21.062;2023-05-23T13:08:37;99993.25;;;43.86;12.65
39341;BME280;25059;52.132;21.062;2023-05-23T13:14:48;99993.88;;;44.45;12.90
39341;BME280;25059;52.132;21.062;2023-05-23T13:17:33;99992.53;;;45.62;12.01
39341;BME280;25059;52.132;21.062;2023-05-23T13:20:18;100000.69;;;46.10;12.38
39341;BME280;25059;52.132;21.062;2023-05-23T13:23:02;99975.34;;;48.12;10.92
39341;BME280;25059;52.132;21.062;2023-05-23T13:25:47;99990.41;;;50.77;10.00
39341;BME280;25059;52.132;21.062;2023-05-23T13:28:33;99979.31;;;51.69;9.43
39341;BME280;25059;52.132;21.062;2023-05-23T13:31:18;99982.63;;;51.62;8.96
39341;BME280;25059;52.132;21.062;2023-05-23T13:34:03;99982.53;;;50.70;9.43
39341;BME280;25059;52.132;21.062;2023-05-23T13:36:48;99981.69;;;52.45;8.92
39341;BME280;25059;52.132;21.062;2023-05-23T13:39:32;99988.38;;;51.87;9.22
39341;BME280;25059;52.132;21.062;2023-05-23T13:42:17;99981.75;;;51.71;8.86
39341;BME280;25059;52.132;21.062;2023-05-23T13:45:01;99980.88;;;51.08;9.56
39341;BME280;25059;52.132;21.062;2023-05-23T13:47:47;99972.00;;;50.59;9.02
39341;BME280;25059;52.132;21.062;2023-05-23T13:50:31;99977.22;;;50.78;9.37
39341;BME280;25059;52.132;21.062;2023-05-23T13:53:16;99965.09;;;52.07;9.01
39341;BME280;25059;52.132;21.062;2023-05-23T13:56:01;99980.53;;;52.58;8.80
39341;BME280;25059;52.132;21.062;2023-05-23T13:58:46;99974.47;;;51.28;9.90
39341;BME280;25059;52.132;21.062;2023-05-23T14:01:31;99962.06;;;53.18;8.59
39341;BME280;25059;52.132;21.062;2023-05-23T14:04:16;99963.47;;;52.76;8.30
39341;BME280;25059;52.132;21.062;2023-05-23T14:07:00;99965.25;;;52.23;8.45
39341;BME280;25059;52.132;21.062;2023-05-23T14:09:45;99970.22;;;51.22;8.88
39341;BME280;25059;52.132;21.062;2023-05-23T14:12:29;99971.97;;;53.40;8.26
39341;BME280;25059;52.132;21.062;2023-05-23T14:15:15;99967.66;;;51.58;8.67
39341;BME280;25059;52.132;21.062;2023-05-23T14:17:59;99970.56;;;51.20;8.94
39341;BME280;25059;52.132;21.062;2023-05-23T14:20:44;99956.22;;;52.87;8.50
39341;BME280;25059;52.132;21.062;2023-05-23T14:23:29;99955.25;;;52.95;8.25
39341;BME280;25059;52.132;21.062;2023-05-23T14:26:14;99953.63;;;52.00;8.72
39341;BME280;25059;52.132;21.062;2023-05-23T14:28:59;99952.56;;;51.00;8.88
39341;BME280;25059;52.132;21.062;2023-05-23T14:31:50;99947.63;;;51.68;8.39
39341;BME280;25059;52.132;21.062;2023-05-23T14:34:38;99958.63;;;51.32;8.27
39341;BME280;25059;52.132;21.062;2023-05-23T14:37:23;99959.63;;;51.90;8.33
39341;BME280;25059;52.132;21.062;2023-05-23T14:40:07;99960.06;;;52.13;8.49
39341;BME280;25059;52.132;21.062;2023-05-23T14:42:53;99956.06;;;53.20;7.80
39341;BME280;25059;52.132;21.062;2023-05-23T14:45:38;99959.84;;;53.92;7.67
39341;BME280;25059;52.132;21.062;2023-05-23T14:48:25;99950.97;;;53.62;8.22
39341;BME280;25059;52.132;21.062;2023-05-23T14:51:09;99944.66;;;54.88;7.82
39341;BME280;25059;52.132;21.062;2023-05-23T14:53:54;99946.28;;;52.65;8.82
39341;BME280;25059;52.132;21.062;2023-05-23T14:56:38;99947.09;;;52.20;7.98
39341;BME280;25059;52.132;21.062;2023-05-23T14:59:24;99945.91;;;53.03;7.70